Time;durP1;ratioP1;P1;durP2;ratioP2;P2;SDS_P1;SDS_P2;PMS_P1;PMS_P2;Temp;Humidity;BMP_temperature;BMP_pressure;BME280_temperature;BME280_humidity;BME280_pressure;Samples;Min_cycle;Max_cycle;Signal;HPM_P1;HPM_P2
2023/01/06 00:02:27;;;;;;;;;;;15.80;66.20;;;;;;5054126;28;19960;-89
2023/01/06 00:05:00;;;;;;;;;;;15.90;66.00;;;;;;5052253;28;19944;-88
2023/01/06 00:07:26;;;;;;;;;;;15.80;66.20;;;;;;5052211;28;20051;-89
2023/01/06 00:09:51;;;;;;;;;;;15.90;66.10;;;;;;5052050;28;20316;-89
2023/01/06 00:12:17;;;;;;;;;;;15.90;66.10;;;;;;5039259;28;19983;-91
2023/01/06 00:14:43;;;;;;;;;;;16.00;66.10;;;;;;5040915;28;19913;-89
2023/01/06 00:17:08;;;;;;;;;;;16.00;66.00;;;;;;5041313;28;19929;-89
2023/01/06 00:19:34;;;;;;;;;;;16.00;66.00;;;;;;5043772;28;19913;-88
2023/01/06 00:21:59;;;;;;;;;;;16.00;65.90;;;;;;5037087;28;19917;-88
2023/01/06 00:24:28;;;;;;;;;;;16.00;66.00;;;;;;5039663;28;20372;-87
2023/01/06 00:26:53;;;;;;;;;;;16.00;66.00;;;;;;5046303;28;20462;-88
2023/01/06 00:29:22;;;;;;;;;;;16.00;65.90;;;;;;5043613;28;20004;-87
2023/01/06 00:31:47;;;;;;;;;;;16.00;65.80;;;;;;5047932;28;19980;-89
2023/01/06 00:34:13;;;;;;;;;;;16.00;65.80;;;;;;5051368;28;19942;-89
2023/01/06 00:36:38;;;;;;;;;;;16.00;65.90;;;;;;5050465;28;19982;-89
2023/01/06 00:39:04;;;;;;;;;;;16.00;65.80;;;;;;5050077;28;20256;-88
2023/01/06 00:44:13;;;;;;;;;;;16.00;65.50;;;;;;5051636;28;19920;-90
2023/01/06 00:46:39;;;;;;;;;;;15.90;65.70;;;;;;5050465;28;19917;-88
2023/01/06 00:52:05;;;;;;;;;;;15.90;65.60;;;;;;5012734;28;19979;-88
2023/01/06 00:54:35;;;;;;;;;;;15.90;65.50;;;;;;5050862;28;19916;-89
2023/01/06 00:57:00;;;;;;;;;;;15.90;65.40;;;;;;5052533;28;19978;-91
2023/01/06 00:59:26;;;;;;;;;;;15.90;65.40;;;;;;5039168;28;19948;-89
2023/01/06 01:01:53;;;;;;;;;;;15.90;65.50;;;;;;5052237;28;19912;-88
2023/01/06 01:04:22;;;;;;;;;;;15.90;65.50;;;;;;5050864;28;20012;-90
2023/01/06 01:06:47;;;;;;;;;;;16.00;65.40;;;;;;5038384;28;19913;-87
2023/01/06 01:09:14;;;;;;;;;;;16.00;65.40;;;;;;5035509;28;19919;-90
2023/01/06 01:14:27;;;;;;;;;;;16.00;65.40;;;;;;5038170;28;19966;-88
2023/01/06 01:16:55;;;;;;;;;;;16.00;65.40;;;;;;5031446;28;19925;-88
2023/01/06 01:19:21;;;;;;;;;;;16.00;65.30;;;;;;5041072;28;19913;-88
2023/01/06 01:21:50;;;;;;;;;;;16.00;65.30;;;;;;5032585;28;20300;-89
2023/01/06 01:24:16;;;;;;;;;;;16.00;65.30;;;;;;5046594;28;19917;-89
2023/01/06 01:26:44;;;;;;;;;;;16.00;65.30;;;;;;5045381;28;19913;-90
2023/01/06 01:29:11;;;;;;;;;;;16.10;65.30;;;;;;5048829;28;19924;-87
2023/01/06 01:31:36;;;;;;;;;;;16.10;65.20;;;;;;5051975;28;19912;-89
2023/01/06 01:34:01;;;;;;;;;;;16.10;65.20;;;;;;5035956;28;19920;-88
2023/01/06 01:36:27;;;;;;;;;;;16.10;65.20;;;;;;5049988;28;19974;-88
2023/01/06 01:38:54;;;;;;;;;;;16.20;65.30;;;;;;5050027;28;19921;-88
2023/01/06 01:41:20;;;;;;;;;;;16.10;65.20;;;;;;5034510;28;19914;-89
2023/01/06 01:43:47;;;;;;;;;;;16.10;65.10;;;;;;5033153;28;19917;-87
2023/01/06 01:46:15;;;;;;;;;;;16.10;65.10;;;;;;5034345;28;19913;-88
2023/01/06 01:48:40;;;;;;;;;;;16.10;65.10;;;;;;5032006;28;20438;-87
2023/01/06 01:51:08;;;;;;;;;;;16.10;65.10;;;;;;5032852;28;19921;-90
2023/01/06 01:53:39;;;;;;;;;;;16.10;65.10;;;;;;5030982;28;19917;-89
2023/01/06 01:56:06;;;;;;;;;;;16.00;65.30;;;;;;5051949;28;20427;-90
2023/01/06 01:58:40;;;;;;;;;;;16.10;65.20;;;;;;5032806;28;19913;-90
2023/01/06 02:01:07;;;;;;;;;;;16.10;65.40;;;;;;5032204;28;19924;-88
2023/01/06 02:03:32;;;;;;;;;;;16.00;65.60;;;;;;5048641;28;20355;-90
2023/01/06 02:06:01;;;;;;;;;;;16.00;65.50;;;;;;5036474;28;19917;-89
2023/01/06 02:08:46;;;;;;;;;;;16.10;65.50;;;;;;5029947;28;19914;-87
2023/01/06 02:11:11;;;;;;;;;;;16.10;65.70;;;;;;5036122;28;19956;-88
2023/01/06 02:13:38;;;;;;;;;;;16.00;65.70;;;;;;5048385;28;20377;-88
2023/01/06 02:16:18;;;;;;;;;;;16.10;65.60;;;;;;5047820;28;19921;-87
2023/01/06 02:18:53;;;;;;;;;;;16.10;65.50;;;;;;5032039;28;20475;-89
2023/01/06 02:21:25;;;;;;;;;;;16.10;65.50;;;;;;5043956;28;20002;-89
2023/01/06 02:24:09;;;;;;;;;;;16.10;65.50;;;;;;5042844;28;19959;-90
2023/01/06 02:26:40;;;;;;;;;;;16.10;65.50;;;;;;5047617;28;19962;-89
2023/01/06 02:29:15;;;;;;;;;;;16.10;65.80;;;;;;5044661;28;19917;-89
2023/01/06 02:31:48;;;;;;;;;;;16.10;65.70;;;;;;5043201;28;19920;-87
2023/01/06 02:34:31;;;;;;;;;;;16.20;65.50;;;;;;5048790;28;19912;-89
2023/01/06 02:37:17;;;;;;;;;;;16.20;65.60;;;;;;5051693;28;19953;-87
2023/01/06 02:39:52;;;;;;;;;;;16.20;65.50;;;;;;5040954;28;20360;-87
2023/01/06 02:42:38;;;;;;;;;;;16.20;65.60;;;;;;5050403;28;19913;-87
2023/01/06 02:45:16;;;;;;;;;;;16.20;65.50;;;;;;5050871;28;19929;-88
2023/01/06 02:48:03;;;;;;;;;;;16.20;65.30;;;;;;5036513;28;19948;-88
2023/01/06 02:50:29;;;;;;;;;;;16.20;65.40;;;;;;5050226;28;19966;-87
2023/01/06 02:53:05;;;;;;;;;;;16.20;65.40;;;;;;5054171;28;19913;-88
2023/01/06 02:55:47;;;;;;;;;;;16.20;65.50;;;;;;5054782;28;20299;-89
2023/01/06 02:58:27;;;;;;;;;;;16.20;65.40;;;;;;5053965;28;19913;-88
2023/01/06 03:00:57;;;;;;;;;;;16.20;65.40;;;;;;5052782;28;19913;-87
2023/01/06 03:03:24;;;;;;;;;;;16.20;65.50;;;;;;5056363;28;19917;-89
2023/01/06 03:05:51;;;;;;;;;;;16.20;65.40;;;;;;5043018;28;19978;-88
2023/01/06 03:08:19;;;;;;;;;;;16.20;65.30;;;;;;5034288;28;19932;-87
2023/01/06 03:10:45;;;;;;;;;;;16.20;65.30;;;;;;5052052;28;20379;-87
2023/01/06 03:13:32;;;;;;;;;;;16.20;65.30;;;;;;5054096;28;19912;-87
2023/01/06 03:15:57;;;;;;;;;;;16.30;65.20;;;;;;5051839;28;19934;-89
2023/01/06 03:18:23;;;;;;;;;;;16.30;65.20;;;;;;5052522;28;19917;-87
2023/01/06 03:20:50;;;;;;;;;;;16.20;65.40;;;;;;5054992;28;19913;-89
2023/01/06 03:23:16;;;;;;;;;;;16.20;65.20;;;;;;5049380;28;20003;-87
2023/01/06 03:25:41;;;;;;;;;;;16.20;65.20;;;;;;5051906;28;19917;-88
2023/01/06 03:28:06;;;;;;;;;;;16.20;65.10;;;;;;5046435;28;20314;-89
2023/01/06 03:30:46;;;;;;;;;;;16.20;65.20;;;;;;5033749;28;20395;-88
2023/01/06 03:33:20;;;;;;;;;;;16.20;65.10;;;;;;5042847;28;19916;-89
2023/01/06 03:36:07;;;;;;;;;;;16.20;64.90;;;;;;5051691;28;19931;-87
2023/01/06 03:38:44;;;;;;;;;;;16.20;64.90;;;;;;5050909;28;19908;-88
2023/01/06 03:41:18;;;;;;;;;;;16.10;65.10;;;;;;5034334;28;19917;-88
2023/01/06 03:43:51;;;;;;;;;;;16.00;65.10;;;;;;5033018;28;19909;-88
2023/01/06 03:46:23;;;;;;;;;;;16.10;65.20;;;;;;5050459;28;19939;-90
2023/01/06 03:48:51;;;;;;;;;;;16.10;65.00;;;;;;5054170;28;19909;-88
2023/01/06 03:51:24;;;;;;;;;;;16.00;64.80;;;;;;5034415;28;20360;-88
2023/01/06 03:53:57;;;;;;;;;;;16.00;64.90;;;;;;5032853;28;19922;-89
2023/01/06 03:56:31;;;;;;;;;;;16.00;65.00;;;;;;5032430;28;19928;-90
2023/01/06 03:58:59;;;;;;;;;;;16.00;64.80;;;;;;5034160;28;20565;-89
2023/01/06 04:01:25;;;;;;;;;;;16.00;64.80;;;;;;5042359;28;19979;-90
2023/01/06 04:03:51;;;;;;;;;;;16.00;65.00;;;;;;5052322;28;19913;-88
2023/01/06 04:06:17;;;;;;;;;;;16.00;65.00;;;;;;5042991;28;19977;-88
2023/01/06 04:08:43;;;;;;;;;;;16.00;65.10;;;;;;5033139;28;20343;-89
2023/01/06 04:12:37;;;;;;;;;;;16.00;65.10;;;;;;5035057;28;19947;-88
2023/01/06 04:13:53;;;;;;;;;;;16.10;65.20;;;;;;5047488;28;20368;-89
2023/01/06 04:16:19;;;;;;;;;;;16.10;65.40;;;;;;5052390;28;19967;-89
2023/01/06 04:18:45;;;;;;;;;;;16.10;65.20;;;;;;5036086;28;19913;-90
2023/01/06 04:21:11;;;;;;;;;;;16.10;65.10;;;;;;5042483;28;19970;-88
2023/01/06 04:23:36;;;;;;;;;;;16.10;65.10;;;;;;5050576;28;19917;-89
2023/01/06 04:26:02;;;;;;;;;;;16.20;65.20;;;;;;5039955;28;20515;-88
2023/01/06 04:28:27;;;;;;;;;;;16.20;65.10;;;;;;5032758;28;19920;-89
2023/01/06 04:30:56;;;;;;;;;;;16.20;65.10;;;;;;5045173;28;19962;-88
2023/01/06 04:33:21;;;;;;;;;;;16.20;65.00;;;;;;5052727;28;20015;-88
2023/01/06 04:35:47;;;;;;;;;;;16.20;65.00;;;;;;5041013;28;20011;-89
2023/01/06 04:38:12;;;;;;;;;;;16.20;65.00;;;;;;5030732;28;19932;-88
2023/01/06 04:40:37;;;;;;;;;;;16.20;64.90;;;;;;5032568;28;19913;-90
2023/01/06 04:43:03;;;;;;;;;;;16.30;64.80;;;;;;5031349;28;19909;-89
2023/01/06 04:45:28;;;;;;;;;;;16.20;65.00;;;;;;5030277;28;20368;-89
2023/01/06 04:47:54;;;;;;;;;;;16.30;64.80;;;;;;5042324;28;19909;-88
2023/01/06 04:50:19;;;;;;;;;;;16.20;64.80;;;;;;5039582;28;20276;-89
2023/01/06 04:52:44;;;;;;;;;;;16.20;64.70;;;;;;5030289;28;19913;-88
2023/01/06 04:55:10;;;;;;;;;;;16.30;64.80;;;;;;5032564;28;19971;-88
2023/01/06 04:57:35;;;;;;;;;;;16.30;64.80;;;;;;5033907;28;20421;-90
2023/01/06 05:00:01;;;;;;;;;;;16.20;64.60;;;;;;5032852;28;20429;-90
2023/01/06 05:02:27;;;;;;;;;;;16.30;64.70;;;;;;5037408;28;20028;-90
2023/01/06 05:04:53;;;;;;;;;;;16.30;64.80;;;;;;5045897;28;20256;-90
2023/01/06 05:07:18;;;;;;;;;;;16.30;64.60;;;;;;5049643;28;20304;-88
2023/01/06 05:09:44;;;;;;;;;;;16.30;64.50;;;;;;5051755;28;19920;-87
2023/01/06 05:12:09;;;;;;;;;;;16.30;64.50;;;;;;5051637;28;19913;-89
2023/01/06 05:14:34;;;;;;;;;;;16.30;64.60;;;;;;5055291;28;19919;-90
2023/01/06 05:17:00;;;;;;;;;;;16.30;64.60;;;;;;5054847;28;19921;-89
2023/01/06 05:19:25;;;;;;;;;;;16.30;64.60;;;;;;5051258;28;19923;-87
2023/01/06 05:21:51;;;;;;;;;;;16.30;64.60;;;;;;5039586;28;19920;-87
2023/01/06 05:24:16;;;;;;;;;;;16.30;64.50;;;;;;5033024;28;20027;-90
2023/01/06 05:26:42;;;;;;;;;;;16.30;64.60;;;;;;5042838;28;19916;-89
2023/01/06 05:29:08;;;;;;;;;;;16.30;64.50;;;;;;5047558;28;20352;-87
2023/01/06 05:31:33;;;;;;;;;;;16.30;64.60;;;;;;5040445;28;19917;-89
2023/01/06 05:33:59;;;;;;;;;;;16.30;64.40;;;;;;5034734;28;20409;-88
2023/01/06 05:36:26;;;;;;;;;;;16.30;64.40;;;;;;5038356;28;21482;-88
2023/01/06 05:38:52;;;;;;;;;;;16.30;64.50;;;;;;5043112;28;19995;-89
2023/01/06 05:41:18;;;;;;;;;;;16.30;64.50;;;;;;5049356;28;20470;-89
2023/01/06 05:43:43;;;;;;;;;;;16.30;64.40;;;;;;5051116;28;19952;-88
2023/01/06 05:46:10;;;;;;;;;;;16.30;64.40;;;;;;5048390;28;19921;-89
2023/01/06 05:48:36;;;;;;;;;;;16.30;64.40;;;;;;5055340;28;20362;-89
2023/01/06 05:51:02;;;;;;;;;;;16.20;64.00;;;;;;5032002;28;19917;-89
2023/01/06 05:53:29;;;;;;;;;;;16.20;64.40;;;;;;5028981;28;19921;-90
2023/01/06 05:55:57;;;;;;;;;;;16.20;64.30;;;;;;5038110;28;19947;-90
2023/01/06 05:58:23;;;;;;;;;;;16.30;64.30;;;;;;5032115;28;19920;-87
2023/01/06 06:00:48;;;;;;;;;;;16.20;64.40;;;;;;5046822;28;19936;-89
2023/01/06 06:03:14;;;;;;;;;;;16.20;64.20;;;;;;5031234;28;19917;-89
2023/01/06 06:05:39;;;;;;;;;;;16.20;64.40;;;;;;5034379;28;19918;-89
2023/01/06 06:08:05;;;;;;;;;;;16.30;64.40;;;;;;5034566;28;20000;-90
2023/01/06 06:10:30;;;;;;;;;;;16.30;64.20;;;;;;5041667;28;20020;-90
2023/01/06 06:12:56;;;;;;;;;;;16.30;64.20;;;;;;5033858;28;20327;-88
2023/01/06 06:15:21;;;;;;;;;;;16.30;64.20;;;;;;5032088;28;20016;-89
2023/01/06 06:17:46;;;;;;;;;;;16.30;64.20;;;;;;5038146;28;19916;-89
2023/01/06 06:20:15;;;;;;;;;;;16.20;64.10;;;;;;5049130;28;19984;-90
2023/01/06 06:22:40;;;;;;;;;;;16.20;63.90;;;;;;5047836;28;19913;-91
2023/01/06 06:25:06;;;;;;;;;;;16.20;64.10;;;;;;5053142;28;19975;-91
2023/01/06 06:27:31;;;;;;;;;;;16.20;64.00;;;;;;5052912;28;20291;-89
2023/01/06 06:29:57;;;;;;;;;;;16.30;63.90;;;;;;5039044;28;20275;-89
2023/01/06 06:32:22;;;;;;;;;;;16.30;63.90;;;;;;5035579;28;19913;-89
2023/01/06 06:34:48;;;;;;;;;;;16.30;64.00;;;;;;5033293;28;19946;-89
2023/01/06 06:37:13;;;;;;;;;;;16.30;63.80;;;;;;5035579;28;19967;-89
2023/01/06 06:39:42;;;;;;;;;;;16.30;63.90;;;;;;5033862;28;19913;-89
2023/01/06 06:42:08;;;;;;;;;;;16.30;63.90;;;;;;5033085;28;20036;-89
2023/01/06 06:44:33;;;;;;;;;;;16.30;63.90;;;;;;5031907;28;20377;-88
2023/01/06 06:46:59;;;;;;;;;;;16.30;63.90;;;;;;5035722;28;20023;-90
2023/01/06 06:49:24;;;;;;;;;;;16.30;63.90;;;;;;5053443;28;19947;-91
2023/01/06 06:51:50;;;;;;;;;;;16.30;63.90;;;;;;5053467;28;20272;-89
2023/01/06 06:54:15;;;;;;;;;;;16.30;63.90;;;;;;5054486;28;20006;-90
2023/01/06 06:56:41;;;;;;;;;;;16.30;63.90;;;;;;5054885;28;20269;-89
2023/01/06 06:59:06;;;;;;;;;;;16.20;63.80;;;;;;5051813;28;19964;-88
2023/01/06 07:01:31;;;;;;;;;;;16.30;63.90;;;;;;5054009;28;19913;-88
2023/01/06 07:03:59;;;;;;;;;;;16.30;63.80;;;;;;5039365;28;19913;-89
2023/01/06 07:06:26;;;;;;;;;;;16.30;63.70;;;;;;5032101;28;19926;-89
2023/01/06 07:08:52;;;;;;;;;;;16.40;63.70;;;;;;5071651;28;19947;-89
2023/01/06 07:11:18;;;;;;;;;;;16.40;63.80;;;;;;5071585;28;19919;-88
2023/01/06 07:13:46;;;;;;;;;;;16.40;63.40;;;;;;5072699;28;19972;-89
2023/01/06 07:16:12;;;;;;;;;;;16.30;63.80;;;;;;5073132;28;19928;-90
2023/01/06 07:18:38;;;;;;;;;;;16.40;63.80;;;;;;5071851;28;19946;-90
2023/01/06 07:21:04;;;;;;;;;;;16.30;63.90;;;;;;5041886;28;20000;-89
2023/01/06 07:23:31;;;;;;;;;;;16.40;63.90;;;;;;5032918;28;19913;-88
2023/01/06 07:25:58;;;;;;;;;;;16.40;63.80;;;;;;5031090;28;19917;-90
2023/01/06 07:28:24;;;;;;;;;;;16.30;63.70;;;;;;5030278;28;19917;-89
2023/01/06 07:30:49;;;;;;;;;;;16.30;63.60;;;;;;5031064;28;19917;-90
2023/01/06 07:33:16;;;;;;;;;;;16.30;63.60;;;;;;5030422;28;19962;-90
2023/01/06 07:35:42;;;;;;;;;;;16.30;63.70;;;;;;5032689;28;20398;-89
2023/01/06 07:38:21;;;;;;;;;;;16.30;63.60;;;;;;5034305;28;20020;-89
2023/01/06 07:40:48;;;;;;;;;;;16.40;63.80;;;;;;5030849;28;19921;-89
2023/01/06 07:43:13;;;;;;;;;;;16.30;63.60;;;;;;5031901;28;19916;-89
2023/01/06 07:45:39;;;;;;;;;;;16.30;63.70;;;;;;5032635;28;19917;-89
2023/01/06 07:48:04;;;;;;;;;;;16.40;63.60;;;;;;5030624;28;20356;-88
2023/01/06 07:50:30;;;;;;;;;;;16.30;63.20;;;;;;5034468;28;20094;-90
2023/01/06 07:52:56;;;;;;;;;;;16.20;63.50;;;;;;5052765;28;20039;-89
2023/01/06 07:55:22;;;;;;;;;;;16.30;63.60;;;;;;5032883;28;19921;-90
2023/01/06 07:57:47;;;;;;;;;;;16.20;63.30;;;;;;5044682;28;19951;-90
2023/01/06 08:00:13;;;;;;;;;;;16.20;63.00;;;;;;5050606;28;19913;-88
2023/01/06 08:02:38;;;;;;;;;;;16.20;63.40;;;;;;5055146;28;19916;-91
2023/01/06 08:05:04;;;;;;;;;;;16.20;63.40;;;;;;5037073;28;19920;-90
2023/01/06 08:07:30;;;;;;;;;;;16.20;63.70;;;;;;5031816;28;19956;-90
2023/01/06 08:09:55;;;;;;;;;;;16.20;63.70;;;;;;5038601;28;19912;-90
2023/01/06 08:12:21;;;;;;;;;;;16.30;63.60;;;;;;5048034;28;20277;-89
2023/01/06 08:14:46;;;;;;;;;;;16.30;63.80;;;;;;5039309;28;19908;-90
2023/01/06 08:17:13;;;;;;;;;;;16.40;63.90;;;;;;5038102;28;19966;-89
2023/01/06 08:19:38;;;;;;;;;;;16.50;63.90;;;;;;5031697;28;19921;-92
2023/01/06 08:22:04;;;;;;;;;;;16.40;63.90;;;;;;5035543;28;20291;-89
2023/01/06 08:24:31;;;;;;;;;;;16.50;63.70;;;;;;5029890;28;20394;-89
2023/01/06 08:26:56;;;;;;;;;;;16.60;63.70;;;;;;5036229;28;19974;-89
2023/01/06 08:29:23;;;;;;;;;;;16.60;63.30;;;;;;5038267;28;19916;-89
2023/01/06 08:31:49;;;;;;;;;;;16.60;63.50;;;;;;5035841;28;19921;-90
2023/01/06 08:34:15;;;;;;;;;;;16.70;63.50;;;;;;5040194;28;20043;-90
2023/01/06 08:36:42;;;;;;;;;;;16.70;63.40;;;;;;5038840;28;20015;-89
2023/01/06 08:39:07;;;;;;;;;;;16.70;63.50;;;;;;5035771;28;20007;-90
2023/01/06 08:41:33;;;;;;;;;;;16.70;63.40;;;;;;5026827;28;20063;-90
2023/01/06 08:43:58;;;;;;;;;;;16.80;63.30;;;;;;5037914;28;20031;-90
2023/01/06 08:46:25;;;;;;;;;;;16.80;63.30;;;;;;5043043;28;20332;-90
2023/01/06 08:48:50;;;;;;;;;;;16.80;63.00;;;;;;5025303;28;19920;-89
2023/01/06 08:51:20;;;;;;;;;;;16.80;63.30;;;;;;5045853;28;19931;-89
2023/01/06 08:53:46;;;;;;;;;;;16.80;63.40;;;;;;5042607;28;20017;-91
2023/01/06 08:56:31;;;;;;;;;;;16.80;63.40;;;;;;5039933;28;20506;-88
2023/01/06 08:58:58;;;;;;;;;;;16.90;63.30;;;;;;5036447;28;19921;-88
2023/01/06 09:01:25;;;;;;;;;;;16.90;63.10;;;;;;5027392;28;19936;-90
2023/01/06 09:03:50;;;;;;;;;;;16.90;63.10;;;;;;5026218;28;20015;-88
2023/01/06 09:06:17;;;;;;;;;;;16.90;63.30;;;;;;5031585;28;20055;-89
2023/01/06 09:08:42;;;;;;;;;;;16.90;63.10;;;;;;5026478;28;19921;-89
2023/01/06 09:11:09;;;;;;;;;;;16.90;63.00;;;;;;5026615;28;19917;-90
2023/01/06 09:13:35;;;;;;;;;;;16.90;63.30;;;;;;5029829;28;20299;-88
2023/01/06 09:16:03;;;;;;;;;;;17.00;63.30;;;;;;5040613;28;19931;-89
2023/01/06 09:18:29;;;;;;;;;;;17.10;63.20;;;;;;5035095;28;20007;-89
2023/01/06 09:20:55;;;;;;;;;;;17.00;62.90;;;;;;5044691;28;19924;-88
2023/01/06 09:23:22;;;;;;;;;;;16.90;62.70;;;;;;5033895;28;19921;-89
2023/01/06 09:25:48;;;;;;;;;;;16.80;62.70;;;;;;5026857;28;19913;-89
2023/01/06 09:28:14;;;;;;;;;;;16.70;63.00;;;;;;5027859;28;20004;-89
2023/01/06 09:30:39;;;;;;;;;;;16.70;63.10;;;;;;5039107;28;19993;-90
2023/01/06 09:33:05;;;;;;;;;;;16.50;63.20;;;;;;5031018;28;19982;-89
2023/01/06 09:35:34;;;;;;;;;;;16.50;63.10;;;;;;5040210;28;19924;-89
2023/01/06 09:37:59;;;;;;;;;;;16.40;63.30;;;;;;5029575;28;19958;-90
2023/01/06 09:40:29;;;;;;;;;;;16.40;63.30;;;;;;5026857;28;19960;-89
2023/01/06 09:42:56;;;;;;;;;;;16.30;63.60;;;;;;5029630;28;20394;-89
2023/01/06 09:45:45;;;;;;;;;;;16.30;63.70;;;;;;5036770;28;20339;-90
2023/01/06 09:48:16;;;;;;;;;;;16.30;63.80;;;;;;5037890;28;20013;-89
2023/01/06 09:50:53;;;;;;;;;;;16.30;63.90;;;;;;5026080;28;19921;-90
2023/01/06 09:53:21;;;;;;;;;;;16.30;64.10;;;;;;5033036;28;19916;-90
2023/01/06 09:55:50;;;;;;;;;;;16.30;64.10;;;;;;5046403;28;19921;-90
2023/01/06 09:58:21;;;;;;;;;;;16.20;64.10;;;;;;5049000;28;19917;-90
2023/01/06 10:00:51;;;;;;;;;;;16.20;64.40;;;;;;5037041;28;19917;-89
2023/01/06 10:03:26;;;;;;;;;;;16.20;64.40;;;;;;5039667;28;19924;-91
2023/01/06 10:06:05;;;;;;;;;;;16.20;64.50;;;;;;5038305;28;19917;-88
2023/01/06 10:08:57;;;;;;;;;;;16.20;64.70;;;;;;5041087;28;19932;-89
2023/01/06 10:11:31;;;;;;;;;;;16.10;64.90;;;;;;5041971;28;19917;-89
2023/01/06 10:14:03;;;;;;;;;;;16.10;65.00;;;;;;5032277;28;19921;-88
2023/01/06 10:16:28;;;;;;;;;;;16.00;65.30;;;;;;5043478;28;19931;-92
2023/01/06 10:19:01;;;;;;;;;;;15.90;65.20;;;;;;5044337;28;20288;-90
2023/01/06 10:21:30;;;;;;;;;;;15.90;65.40;;;;;;5047545;28;19916;-89
2023/01/06 10:24:13;;;;;;;;;;;15.90;65.50;;;;;;5031828;28;19921;-88
2023/01/06 10:26:49;;;;;;;;;;;15.80;65.60;;;;;;5035009;28;19956;-88
2023/01/06 10:29:19;;;;;;;;;;;15.80;65.50;;;;;;5042216;28;19971;-88
2023/01/06 10:31:45;;;;;;;;;;;15.80;65.70;;;;;;5041153;28;19917;-90
2023/01/06 10:34:24;;;;;;;;;;;15.90;65.50;;;;;;5046265;28;20389;-92
2023/01/06 10:36:56;;;;;;;;;;;15.90;65.50;;;;;;5040441;28;19933;-92
2023/01/06 10:39:24;;;;;;;;;;;15.80;65.90;;;;;;5030278;28;20491;-92
2023/01/06 10:44:46;;;;;;;;;;;15.90;65.90;;;;;;5031386;28;19995;-90
2023/01/06 10:47:19;;;;;;;;;;;15.90;66.00;;;;;;5034487;28;19917;-93
2023/01/06 10:49:45;;;;;;;;;;;16.00;66.10;;;;;;5043746;28;19927;-89
2023/01/06 10:52:11;;;;;;;;;;;16.00;65.90;;;;;;5035794;28;19917;-89
2023/01/06 10:54:38;;;;;;;;;;;16.10;66.10;;;;;;5030146;28;19957;-89
2023/01/06 10:57:08;;;;;;;;;;;16.10;65.90;;;;;;5035917;28;19921;-89
2023/01/06 10:59:55;;;;;;;;;;;16.20;65.80;;;;;;5045093;28;19920;-91
2023/01/06 11:02:22;;;;;;;;;;;16.20;65.90;;;;;;5027911;28;20327;-89
2023/01/06 11:04:51;;;;;;;;;;;16.30;66.00;;;;;;5039397;28;19967;-89
2023/01/06 11:07:16;;;;;;;;;;;16.40;65.80;;;;;;5028268;28;20315;-88
2023/01/06 11:09:43;;;;;;;;;;;16.40;65.90;;;;;;5044358;28;20390;-89
2023/01/06 11:12:09;;;;;;;;;;;16.50;65.90;;;;;;5038246;28;19923;-89
2023/01/06 11:14:35;;;;;;;;;;;16.60;65.80;;;;;;5039397;28;19936;-91
2023/01/06 11:17:06;;;;;;;;;;;16.70;65.90;;;;;;5035966;28;19940;-90
2023/01/06 11:19:36;;;;;;;;;;;16.70;65.70;;;;;;5040934;28;20007;-87
2023/01/06 11:22:02;;;;;;;;;;;16.80;65.70;;;;;;5040935;28;20003;-88
2023/01/06 11:24:28;;;;;;;;;;;16.90;65.80;;;;;;5027386;28;20075;-89
2023/01/06 11:26:53;;;;;;;;;;;17.00;65.70;;;;;;5040795;28;19917;-90
2023/01/06 11:29:34;;;;;;;;;;;17.10;65.50;;;;;;5034801;28;19917;-90
2023/01/06 11:32:20;;;;;;;;;;;17.00;65.50;;;;;;5044822;28;19921;-91
2023/01/06 11:34:56;;;;;;;;;;;17.10;65.60;;;;;;5037601;28;19917;-91
2023/01/06 11:37:49;;;;;;;;;;;17.10;65.90;;;;;;5038149;28;19978;-90
2023/01/06 11:40:28;;;;;;;;;;;17.20;65.60;;;;;;5047492;28;19921;-91
2023/01/06 11:43:00;;;;;;;;;;;17.10;65.40;;;;;;5035222;28;19917;-89
2023/01/06 11:45:28;;;;;;;;;;;17.00;65.20;;;;;;5036427;28;20345;-89
2023/01/06 11:47:56;;;;;;;;;;;17.00;65.10;;;;;;5030418;28;19917;-89
2023/01/06 11:50:24;;;;;;;;;;;17.00;64.70;;;;;;5047273;28;20605;-89
2023/01/06 11:53:03;;;;;;;;;;;16.90;64.60;;;;;;5030873;28;19917;-90
2023/01/06 11:55:29;;;;;;;;;;;16.90;64.60;;;;;;5026523;28;19948;-89
2023/01/06 11:58:10;;;;;;;;;;;16.80;64.90;;;;;;5033147;28;19985;-91
2023/01/06 12:00:55;;;;;;;;;;;16.70;64.90;;;;;;5032001;28;19925;-89
2023/01/06 12:03:34;;;;;;;;;;;16.70;65.00;;;;;;5037966;28;19920;-90
2023/01/06 12:05:59;;;;;;;;;;;16.70;64.80;;;;;;5040188;28;19963;-91
2023/01/06 12:08:34;;;;;;;;;;;16.60;64.60;;;;;;5036167;28;19978;-88
2023/01/06 12:11:06;;;;;;;;;;;16.60;64.50;;;;;;5030554;28;19921;-89
2023/01/06 12:13:32;;;;;;;;;;;16.50;64.60;;;;;;5042562;28;20180;-90
2023/01/06 12:16:06;;;;;;;;;;;16.50;64.60;;;;;;5045110;28;20535;-88
2023/01/06 12:18:34;;;;;;;;;;;16.40;64.50;;;;;;5036669;28;19928;-89
2023/01/06 12:20:59;;;;;;;;;;;16.40;64.60;;;;;;5035942;28;20859;-89
2023/01/06 12:23:27;;;;;;;;;;;16.40;64.60;;;;;;5035761;28;19971;-87
2023/01/06 12:25:57;;;;;;;;;;;16.50;65.20;;;;;;5037407;28;20494;-90
2023/01/06 12:28:34;;;;;;;;;;;16.60;65.50;;;;;;5041364;28;19927;-88
2023/01/06 12:31:20;;;;;;;;;;;16.80;65.80;;;;;;5033256;28;19921;-91
2023/01/06 12:33:51;;;;;;;;;;;17.00;66.00;;;;;;5040332;28;19944;-90
2023/01/06 12:36:26;;;;;;;;;;;17.20;65.70;;;;;;5044678;28;19972;-90
2023/01/06 12:38:52;;;;;;;;;;;17.20;65.30;;;;;;5044075;28;19939;-89
2023/01/06 12:41:17;;;;;;;;;;;17.20;65.10;;;;;;5034517;28;19921;-90
2023/01/06 12:43:48;;;;;;;;;;;17.30;65.00;;;;;;5041735;28;19974;-90
2023/01/06 12:46:17;;;;;;;;;;;17.30;65.20;;;;;;5042997;28;19921;-91
2023/01/06 12:48:45;;;;;;;;;;;17.30;64.90;;;;;;5043993;28;20019;-90
2023/01/06 12:51:17;;;;;;;;;;;17.30;65.10;;;;;;5028389;28;19921;-89
2023/01/06 12:53:44;;;;;;;;;;;17.50;65.40;;;;;;5059509;28;20298;-88
2023/01/06 12:56:29;;;;;;;;;;;17.50;65.30;;;;;;5068443;28;19924;-89
2023/01/06 12:58:55;;;;;;;;;;;17.60;65.00;;;;;;5032925;28;19924;-89
2023/01/06 13:01:36;;;;;;;;;;;17.70;64.70;;;;;;5041323;28;19931;-89
2023/01/06 13:04:05;;;;;;;;;;;17.70;64.60;;;;;;5040637;28;20279;-88
2023/01/06 13:06:49;;;;;;;;;;;17.70;64.40;;;;;;5039676;28;19920;-89
2023/01/06 13:09:15;;;;;;;;;;;17.60;64.30;;;;;;5036983;28;20424;-89
2023/01/06 13:11:41;;;;;;;;;;;17.50;64.10;;;;;;5032462;28;20055;-90
2023/01/06 13:14:06;;;;;;;;;;;17.40;63.80;;;;;;5031171;28;20366;-88
2023/01/06 13:16:42;;;;;;;;;;;17.30;63.80;;;;;;5028878;28;20357;-89
2023/01/06 13:19:15;;;;;;;;;;;17.20;63.70;;;;;;5029792;28;19917;-89
2023/01/06 13:21:41;;;;;;;;;;;17.10;63.90;;;;;;5034520;28;19927;-91
2023/01/06 13:24:10;;;;;;;;;;;17.20;64.20;;;;;;5034166;28;19921;-89
2023/01/06 13:26:54;;;;;;;;;;;17.10;64.30;;;;;;5029923;28;20299;-89
2023/01/06 13:29:23;;;;;;;;;;;17.10;64.40;;;;;;5040517;28;19956;-88
2023/01/06 13:31:48;;;;;;;;;;;17.10;64.30;;;;;;5040487;28;20422;-91
2023/01/06 13:34:33;;;;;;;;;;;17.10;64.30;;;;;;5043359;28;19917;-90
2023/01/06 13:37:18;;;;;;;;;;;17.00;64.50;;;;;;5034020;28;19936;-89
2023/01/06 13:39:44;;;;;;;;;;;17.00;64.50;;;;;;5035821;28;19954;-91
2023/01/06 13:42:13;;;;;;;;;;;17.00;64.60;;;;;;5030136;28;19979;-90
2023/01/06 13:44:43;;;;;;;;;;;17.00;64.70;;;;;;5034488;28;20685;-90
2023/01/06 13:47:15;;;;;;;;;;;17.10;64.90;;;;;;5041513;28;19924;-89
2023/01/06 13:49:41;;;;;;;;;;;17.30;65.30;;;;;;5045143;28;20339;-89
2023/01/06 13:52:11;;;;;;;;;;;17.40;65.50;;;;;;5045431;28;20011;-90
2023/01/06 13:54:42;;;;;;;;;;;17.60;65.60;;;;;;5043870;28;19924;-89
2023/01/06 13:57:20;;;;;;;;;;;17.80;65.60;;;;;;5047108;28;19956;-89
2023/01/06 14:00:03;;;;;;;;;;;17.90;65.40;;;;;;5046418;28;19921;-89
2023/01/06 14:02:32;;;;;;;;;;;18.00;65.30;;;;;;5041614;28;20043;-90
2023/01/06 14:04:59;;;;;;;;;;;17.90;65.10;;;;;;5041603;28;19921;-90
2023/01/06 14:07:38;;;;;;;;;;;17.90;65.10;;;;;;5019147;28;20477;-89
2023/01/06 14:10:05;;;;;;;;;;;17.90;64.70;;;;;;5035124;28;20343;-89
2023/01/06 14:12:34;;;;;;;;;;;17.80;64.60;;;;;;5043416;28;19920;-89
2023/01/06 14:15:17;;;;;;;;;;;17.80;64.70;;;;;;5048494;28;19924;-89
2023/01/06 14:17:45;;;;;;;;;;;17.80;64.20;;;;;;5048961;28;19932;-89
2023/01/06 14:20:24;;;;;;;;;;;17.70;64.20;;;;;;5033138;28;20012;-90
2023/01/06 14:22:57;;;;;;;;;;;17.60;63.90;;;;;;5043282;28;20013;-88
2023/01/06 14:25:22;;;;;;;;;;;17.40;63.70;;;;;;5036050;28;20372;-91
2023/01/06 14:27:48;;;;;;;;;;;17.30;63.80;;;;;;5034787;28;19923;-89
2023/01/06 14:30:21;;;;;;;;;;;17.30;63.90;;;;;;5042926;28;19921;-91
2023/01/06 14:32:46;;;;;;;;;;;17.10;63.70;;;;;;5034138;28;19917;-90
2023/01/06 14:35:17;;;;;;;;;;;17.00;63.60;;;;;;5042551;28;19943;-90
2023/01/06 14:37:50;;;;;;;;;;;16.90;63.50;;;;;;5030856;28;19925;-89
2023/01/06 14:40:23;;;;;;;;;;;16.80;63.70;;;;;;5034139;28;19928;-90